Upland, IN (46989)

9:04 PM EST on March 01, 2015 (GMT -0500)
WB9HLA-1 | Change Station
CLOSE
Current Station
Personal Weather Station
Location: Hartford City, IN
Elevation: 918 ft
Nearby Weather Stations

Elev 918 ft 40.46 °N, 85.37 °W | Updated 19 minutes ago

Overcast
Overcast
23.9 °F
Feels Like 24 °F
N
0.0
Wind Variable Wind from WSW
Gusts 0.0 mph

Today
High -- | Low -- °F
--% Chance of Precip.
Yesterday
High -- | Low -- °F
Precip. -- in
7:16 AM 6:33 PM
Waxing Gibbous, 88% visible
Pressure 30.30 in
Visibility 7.0 miles
Clouds Mostly Cloudy 1000 ft
Windchill 24 °F
Dew Point 17 °F
Humidity 74%
Rainfall -999.00 in
Snow Depth Not available.
UV 0 out of 12
Pollen .40 out of 12
Air Quality Not available.
Flu Activity Not available.
METAR KMZZ 020155Z AUTO 28007KT 7SM BKN010 M08/M10 A3030 RMK AO2 T10841099

More Conditions Fewer Conditions

Pressure 30.30 in
Visibility 7.0 miles
Clouds Mostly Cloudy 1000 ft
Windchill 24 °F
Dew Point 17 °F
Humidity 74%
Rainfall -999.00 in
Snow Depth Not available.
UV 0 out of 12
Pollen .40 out of 12
Air Quality Not available.
Flu Activity Not available.
METAR KMZZ 020155Z AUTO 28007KT 7SM BKN010 M08/M10 A3030 RMK AO2 T10841099

More Conditions Fewer Conditions

10-Day Weather Forecast

Almanac

Astronomy

Mar. 01, 2015 Rise Set
Actual Time
Civil Twilight
Nautical Twilight
Astronomical Twilight
Moon
Length of Visible Light
Length of Day
Tomorrow will be .
, % of the Moon is Illuminated

Today's Extremes

State Highs State Lows

Community

WunderPhotos

Upload Photos

1,801,679 photos uploaded!

WunderBlogs® & News

Nearby

Air Quality

  Air Quality AQ Index Pollutant
Not available.

Snow Depth

Station Depth Elevation

Earthquake Activity

City Distance Mag. Time & Date
Minimum magnitude displayed is 2.5.

Coastal Water Temperatures

Place Temperature

Nearby Weather Stations